Flight Track Log - Related Links

Times and Time Zones

All times are in EDT time to prevent confusion due to time zone crossing. See the N830QS flight status page for this flight to view local times or setup timezone preferences in your user account.

Time Position Orientation Groundspeed Altitude Reporting Facility
EDT Latitude Longitude Course Direction KTS MPH feet Rate Location/Type
Sat 01:31:27 PM 34.1500 -118.5167 248° West 207 238 2,900  Level Southern California TRACON
Sat 01:32:22 PM 34.1333 -118.5667 248° West 229 264 4,700 1,689 Climbing Southern California TRACON
Sat 01:33:42 PM 34.1986 -118.6208 326° Northwest 267 307 6,700 1,394 Climbing Los Angeles Center
Sat 01:34:44 PM 34.2906 -118.6567 342° North 286 329 8,000 1,161 Climbing Los Angeles Center
Sat 01:35:46 PM 34.3706 -118.6886 342° North 298 343 9,100 1,548 Climbing Los Angeles Center
Sat 01:36:48 PM 34.4528 -118.7206 342° North 311 358 11,200 1,937 Climbing Los Angeles Center
Sat 01:37:53 PM 34.5383 -118.7550 342° North 326 375 13,200 1,355 Climbing Los Angeles Center
Sat 01:38:52 PM 34.6281 -118.7908 342° North 340 391 14,000 992 Climbing Los Angeles Center
Sat 01:39:54 PM 34.7372 -118.7989 357° North 334 384 15,200 1,016 Climbing Los Angeles Center
Sat 01:40:56 PM 34.8372 -118.7797 North 361 415 16,100 1,355 Climbing Los Angeles Center
Sat 01:41:58 PM 34.9456 -118.7575 10° North 369 425 18,000 2,081 Climbing Los Angeles Center
Sat 01:43:00 PM 35.0408 -118.7403 North 354 407 20,400 1,857 Climbing Los Angeles Center
Sat 01:44:04 PM 35.1375 -118.7217 North 352 405 21,900 1,392 Climbing Los Angeles Center
Sat 01:45:05 PM 35.2392 -118.7031 North 364 419 23,300 1,317 Climbing Los Angeles Center
Sat 01:46:07 PM 35.3458 -118.6828 North 378 435 24,600 1,210 Climbing Los Angeles Center
Sat 01:47:09 PM 35.4511 -118.6617 North 383 441 25,800 1,403 Climbing Los Angeles Center
Sat 01:48:11 PM 35.5806 -118.6361 North 393 452 27,500 1,597 Climbing Los Angeles Center
Sat 01:49:13 PM 35.6875 -118.6161 North 390 449 29,100 1,392 Climbing Los Angeles Center
Sat 01:50:16 PM 35.7950 -118.5958 North 391 450 30,400 1,645 Climbing Los Angeles Center
Sat 01:51:17 PM 35.9014 -118.5742 North 390 449 32,500 1,920 Climbing Los Angeles Center
Sat 01:52:21 PM 35.9975 -118.5558 North 364 419 34,400 1,694 Climbing Los Angeles Center
Sat 01:53:21 PM 36.1125 -118.5333 North 352 405 36,000 1,200 Climbing Los Angeles Center
Sat 01:54:26 PM 36.2061 -118.5133 10° North 350 403 36,900 905 Climbing Oakland Center
Sat 01:55:27 PM 36.3044 -118.4931 North 355 409 37,900 537 Climbing Oakland Center
Sat 01:56:29 PM 36.4050 -118.4736 North 363 418 38,000 49 Climbing Oakland Center
Sat 01:57:30 PM 36.5072 -118.4558 North 379 436 38,000  Level Los Angeles Center
Sat 01:58:32 PM 36.6378 -118.4286 North 394 453 38,000  Level Oakland Center
Sat 01:59:34 PM 36.7517 -118.4075 North 406 467 38,000  Level Oakland Center
Sat 02:00:36 PM 36.8628 -118.3792 12° North 408 470 38,000  Level Oakland Center
Sat 02:01:40 PM 36.9822 -118.3636 North 416 479 38,000  Level Los Angeles Center
Sat 02:02:40 PM 37.0983 -118.3397 North 420 483 38,000  Level Los Angeles Center
Sat 02:03:42 PM 37.2369 -118.3117 North 420 483 38,000  Level Los Angeles Center
Sat 02:04:42 PM 37.3514 -118.2844 11° North 424 488 38,000  Level Oakland Center
Sat 02:05:44 PM 37.4678 -118.2594 10° North 424 488 38,000  Level Oakland Center
Sat 02:06:46 PM 37.5861 -118.2356 North 428 493 38,000  Level Oakland Center
Sat 02:07:47 PM 37.7039 -118.2122 North 429 494 38,000  Level Oakland Center
Sat 02:08:49 PM 37.8214 -118.1875 North 427 491 38,000  Level Oakland Center
Sat 02:09:51 PM 37.9403 -118.1628 North 430 495 38,000  Level Oakland Center
Sat 02:10:52 PM 38.0583 -118.1386 North 427 491 38,000  Level Oakland Center
Sat 02:11:54 PM 38.1872 -118.1117 North 429 494 38,000  Level Oakland Center
Sat 02:12:56 PM 38.2958 -118.0894 North 429 494 38,000  Level Oakland Center
Sat 02:13:57 PM 38.4408 -118.0581 10° North 436 502 38,000  Level Oakland Center
Sat 02:14:59 PM 38.5572 -118.0256 12° North 429 494 38,000  Level Oakland Center
Sat 02:16:00 PM 38.6783 -117.9681 20° North 435 501 38,000  Level Oakland Center
Sat 02:17:02 PM 38.7919 -117.9156 20° North 435 501 38,000  Level Oakland Center
Sat 02:18:04 PM 38.9047 -117.8617 20° North 435 501 38,000  Level Oakland Center
Sat 02:19:05 PM 39.0186 -117.8086 20° North 436 502 38,000  Level Oakland Center
Sat 02:20:07 PM 39.1331 -117.7539 20° North 439 505 38,000  Level Oakland Center
Sat 02:21:08 PM 39.2478 -117.6997 20° North 441 507 38,000  Level Oakland Center
Sat 02:22:10 PM 39.3622 -117.6456 20° North 440 506 38,000  Level Oakland Center
Sat 02:23:12 PM 39.5008 -117.5794 20° North 443 510 38,000  Level Oakland Center
Sat 02:24:13 PM 39.6153 -117.5242 20° North 442 509 38,000  Level Oakland Center
Sat 02:25:15 PM 39.7269 -117.4708 20° North 442 509 38,000  Level Oakland Center
Sat 02:26:17 PM 39.8372 -117.4169 21° North 442 509 38,000  Level Oakland Center
Sat 02:27:18 PM 39.9664 -117.3539 21° North 443 510 38,000  Level Oakland Center
Sat 02:28:20 PM 40.0786 -117.3000 20° North 447 514 38,000  Level Oakland Center
Sat 02:29:22 PM 40.2078 -117.2369 20° North 443 510 38,000  Level Oakland Center
Sat 02:30:23 PM 40.3206 -117.1833 20° North 447 514 38,000  Level Oakland Center
Sat 02:31:25 PM 40.4344 -117.1283 20° North 448 516 38,000  Level Oakland Center
Sat 02:32:26 PM 40.5681 -117.0628 20° North 451 519 38,000  Level Oakland Center
Sat 02:33:28 PM 40.6794 -117.0056 21° North 446 513 38,000  Level Oakland Center
Sat 02:34:30 PM 40.7925 -116.9492 21° North 449 517 38,000  Level Oakland Center
Sat 02:35:57 PM 40.9753 -116.8553 21° North 444 511 38,000  Level Salt Lake Center
Sat 02:37:00 PM 41.0875 -116.7997 20° North 448 516 38,000  Level Salt Lake Center
Sat 02:38:02 PM 41.1964 -116.7442 21° North 441 507 38,000  Level Salt Lake Center
Sat 02:39:04 PM 41.3256 -116.6789 21° North 443 510 38,000 -145 Level Salt Lake Center
Sat 02:40:06 PM 41.4358 -116.6211 21° North 444 511 37,700 -1,210 Descending Salt Lake Center
Sat 02:41:08 PM 41.5650 -116.5556 21° North 445 512 35,500 -2,081 Descending Salt Lake Center
Sat 02:42:10 PM 41.6744 -116.4986 21° North 442 509 33,400 -2,226 Descending Salt Lake Center
Sat 02:43:12 PM 41.8053 -116.4306 21° North 452 520 30,900 -2,274 Descending Salt Lake Center
Sat 02:44:14 PM 41.9175 -116.3742 20° North 450 518 28,700 -2,226 Descending Salt Lake Center
Sat 02:45:16 PM 42.0503 -116.3028 22° Northeast 448 516 26,300 -2,226 Descending Salt Lake Center
Sat 02:46:18 PM 42.1575 -116.2469 21° North 430 495 24,100 -2,274 Descending Salt Lake Center
Sat 02:47:20 PM 42.2814 -116.1806 22° Northeast 429 494 21,600 -2,226 Descending Salt Lake Center
Sat 02:48:22 PM 42.3856 -116.1283 20° North 419 482 19,500 -2,081 Descending Salt Lake Center
Sat 02:49:24 PM 42.4947 -116.0703 21° North 403 464 17,300 -2,226 Descending Salt Lake Center
Sat 02:50:26 PM 42.5983 -116.0161 21° North 377 434 14,900 -2,323 Descending Salt Lake Center
Sat 02:51:28 PM 42.6889 -115.9683 21° North 334 384 12,500 -1,403 Descending Salt Lake Center
Sat 02:52:30 PM 42.7736 -115.9228 22° Northeast 317 365 12,000 -726 Descending Salt Lake Center
Sat 02:53:32 PM 42.8597 -115.8775 21° North 316 364 11,000 -968 Descending Salt Lake Center
Sat 02:54:34 PM 42.9294 -115.8442 19° North 280 322 10,000 -484 Descending Salt Lake Center
Sat 02:55:36 PM 42.9867 -115.8153 20° North 211 243 10,000 -871 Level Salt Lake Center
Sat 02:56:38 PM 43.0339 -115.7600 41° Northeast 223 257 8,200 -1,742 Descending Salt Lake Center
Sat 02:57:40 PM 43.0669 -115.6872 58° Northeast 216 249 6,400 -1,742 Descending Salt Lake Center

Login

Don't have an account? Register now (free) for customized features, flight alerts, and more!